KHIF

Hill AFB Airport

Ogden, Utah, USA
METAR KHIF 221958Z AUTO 20003KT 10SM CLR 18/05 A3008 RMK AO2 SLP149 T01800045
Observed Flight Rules
Oct-22 @ 19:58 UTC (53 minutes ago) Visual Flight Rules
Wind Visibility Clouds
200° at 3 knots 10 miles
  • Clear skies
Temperatures Readings
Current 18°C / 64°F
Dewpoint 5°C / 41°F
Humidity 43%
Altimeter 30.08" Hg
Pressure 1014.9 hPa
Elevation 1459
METAR KHIF 221958Z AUTO 20003KT 10SM CLR 18/05 A3008 RMK AO2 SLP149 T01800045
Observed Flight Rules
Oct-22 @ 19:58 UTC
(53 minutes ago)
VFR
Wind Visibility
200° at 3 knots 10 miles
Clouds
  • Clear skies
Temperature Dewpoint
18°C / 64°F 5°C / 41°F
Humidity Altimeter Pressure
43% 30.08" Hg 1014.9 hPa